Time;durP1;ratioP1;P1;durP2;ratioP2;P2;SDS_P1;SDS_P2;PMS_P1;PMS_P2;Temp;Humidity;BMP_temperature;BMP_pressure;BME280_temperature;BME280_humidity;BME280_pressure;Samples;Min_cycle;Max_cycle;Signal;HPM_P1;HPM_P2
2023/01/24 00:02:00;;;;;;;4.00;2.38;;;4.50;84.80;;;;;;5015479;28;20025;-65
2023/01/24 00:04:25;;;;;;;5.60;2.88;;;4.60;85.00;;;;;;5015415;28;20038;-66
2023/01/24 00:06:51;;;;;;;6.53;3.47;;;4.60;84.60;;;;;;5010448;28;20091;-65
2023/01/24 00:09:17;;;;;;;8.48;4.05;;;4.50;84.30;;;;;;5017307;28;20048;-67
2023/01/24 00:11:42;;;;;;;6.57;3.28;;;4.40;84.40;;;;;;5026070;28;20056;-66
2023/01/24 00:14:08;;;;;;;8.73;4.00;;;4.50;84.80;;;;;;5022895;28;20026;-65
2023/01/24 00:16:33;;;;;;;8.75;3.72;;;4.40;84.40;;;;;;5029276;28;20125;-66
2023/01/24 00:18:59;;;;;;;7.93;2.95;;;4.40;84.30;;;;;;5027198;28;20048;-66
2023/01/24 00:21:24;;;;;;;7.80;3.47;;;4.40;84.60;;;;;;5015514;28;20033;-65
2023/01/24 00:23:54;;;;;;;5.68;3.15;;;4.40;84.10;;;;;;5027585;28;20056;-65
2023/01/24 00:26:21;;;;;;;7.45;3.20;;;4.30;84.30;;;;;;5024077;28;20084;-65
2023/01/24 00:28:47;;;;;;;5.88;2.75;;;4.30;84.90;;;;;;5024794;28;20028;-66
2023/01/24 00:31:13;;;;;;;5.70;2.50;;;4.30;84.60;;;;;;5025904;28;20030;-66
2023/01/24 00:33:39;;;;;;;6.50;2.97;;;4.40;84.50;;;;;;5033075;28;20052;-65
2023/01/24 00:36:05;;;;;;;6.43;2.88;;;4.40;84.40;;;;;;5022449;28;20037;-65
2023/01/24 00:38:31;;;;;;;8.93;3.63;;;4.40;84.20;;;;;;5020951;28;20033;-65
2023/01/24 00:40:57;;;;;;;6.93;3.22;;;4.40;83.90;;;;;;5018052;28;20045;-65
2023/01/24 00:43:23;;;;;;;4.20;2.40;;;4.40;84.20;;;;;;5021914;28;20033;-65
2023/01/24 00:45:49;;;;;;;5.00;2.50;;;4.40;84.40;;;;;;5029694;28;20029;-64
2023/01/24 00:48:15;;;;;;;6.78;3.38;;;4.40;84.30;;;;;;5021944;28;20096;-63
2023/01/24 00:50:41;;;;;;;8.63;3.30;;;4.40;84.10;;;;;;5025472;28;20472;-64
2023/01/24 00:53:07;;;;;;;6.55;3.25;;;4.40;84.20;;;;;;5031265;28;20033;-65
2023/01/24 00:55:32;;;;;;;6.13;2.63;;;4.40;84.40;;;;;;5031234;28;20026;-65
2023/01/24 00:57:58;;;;;;;6.13;2.83;;;4.50;84.60;;;;;;5019318;28;20034;-64
2023/01/24 01:00:24;;;;;;;6.07;2.72;;;4.50;84.40;;;;;;5030779;28;20835;-65
2023/01/24 01:02:50;;;;;;;7.53;3.20;;;4.40;84.20;;;;;;5031571;28;20072;-66
2023/01/24 01:05:17;;;;;;;6.68;3.28;;;4.40;84.10;;;;;;5031649;28;20021;-66
2023/01/24 01:07:42;;;;;;;6.68;3.58;;;4.40;84.20;;;;;;5031403;28;20672;-64
2023/01/24 01:10:09;;;;;;;6.85;3.45;;;4.40;84.30;;;;;;5028239;28;20014;-63
2023/01/24 01:12:35;;;;;;;8.38;3.90;;;4.30;84.00;;;;;;5028577;28;20026;-63
2023/01/24 01:15:00;;;;;;;7.13;3.55;;;4.30;84.00;;;;;;5026659;28;20044;-64
2023/01/24 01:17:27;;;;;;;8.80;3.47;;;4.30;83.90;;;;;;5029563;28;20034;-64
2023/01/24 01:19:53;;;;;;;10.35;3.85;;;4.30;84.20;;;;;;5016597;28;20510;-64
2023/01/24 01:22:19;;;;;;;8.02;3.30;;;4.30;84.00;;;;;;5030284;28;20037;-64
2023/01/24 01:24:45;;;;;;;9.15;3.67;;;4.30;84.00;;;;;;5023433;28;20033;-64
2023/01/24 01:27:10;;;;;;;7.53;3.08;;;4.20;84.10;;;;;;5024405;28;20033;-63
2023/01/24 01:29:36;;;;;;;8.70;3.97;;;4.30;84.40;;;;;;5015598;28;20541;-65
2023/01/24 01:32:01;;;;;;;6.53;3.20;;;4.30;84.20;;;;;;5020888;28;20396;-64
2023/01/24 01:34:27;;;;;;;6.32;3.42;;;4.20;84.30;;;;;;5022069;28;20076;-64
2023/01/24 01:36:53;;;;;;;5.75;2.75;;;4.30;84.50;;;;;;5031127;28;20654;-64
2023/01/24 01:39:18;;;;;;;9.05;4.45;;;4.30;84.50;;;;;;5031960;28;20045;-65
2023/01/24 01:41:44;;;;;;;5.60;2.80;;;4.30;84.50;;;;;;5031304;28;20547;-63
2023/01/24 01:47:24;;;;;;;5.35;2.83;;;4.30;85.00;;;;;;5017203;28;20043;-64
2023/01/24 01:50:07;;;;;;;3.58;2.00;;;4.30;85.00;;;;;;5021629;28;20095;-63
2023/01/24 01:52:37;;;;;;;5.70;2.92;;;4.40;84.90;;;;;;5026433;28;20105;-64
2023/01/24 01:55:09;;;;;;;7.28;3.83;;;4.30;84.70;;;;;;5021678;28;20079;-64
2023/01/24 01:57:36;;;;;;;8.82;4.30;;;4.20;84.70;;;;;;5029625;28;20049;-64
2023/01/24 02:00:07;;;;;;;8.13;3.20;;;4.20;84.80;;;;;;5030968;28;20484;-65
2023/01/24 02:02:33;;;;;;;6.35;3.13;;;4.20;85.10;;;;;;5015278;28;21791;-64
2023/01/24 02:05:02;;;;;;;5.97;2.33;;;4.30;85.40;;;;;;5031087;28;20025;-65
2023/01/24 02:07:34;;;;;;;4.20;2.42;;;4.30;85.10;;;;;;5031759;28;20114;-64
2023/01/24 02:10:00;;;;;;;6.45;3.13;;;4.30;85.20;;;;;;5031036;28;20488;-65
2023/01/24 02:12:32;;;;;;;7.30;3.50;;;4.30;85.10;;;;;;5030835;28;20025;-64
2023/01/24 02:17:50;;;;;;;9.02;3.72;;;4.10;84.80;;;;;;5030944;28;20099;-65
2023/01/24 02:20:34;;;;;;;7.45;3.47;;;4.10;84.90;;;;;;5028827;28;20037;-63
2023/01/24 02:23:11;;;;;;;4.47;2.60;;;4.10;85.10;;;;;;5024792;28;20029;-64
2023/01/24 02:25:41;;;;;;;6.57;3.53;;;4.10;85.30;;;;;;5029732;28;20022;-64
2023/01/24 02:28:08;;;;;;;7.85;3.15;;;4.20;85.30;;;;;;5012978;28;21826;-63
2023/01/24 02:30:36;;;;;;;5.53;2.65;;;4.10;85.20;;;;;;5023568;28;20033;-63
2023/01/24 02:33:13;;;;;;;7.05;2.83;;;4.20;85.60;;;;;;5023815;28;20416;-64
2023/01/24 02:35:40;;;;;;;5.80;2.83;;;4.10;85.40;;;;;;5016436;28;20101;-65
2023/01/24 02:38:13;;;;;;;5.82;2.83;;;4.20;85.50;;;;;;5011679;28;20492;-65
2023/01/24 02:40:40;;;;;;;7.45;3.40;;;4.20;85.50;;;;;;5020002;28;20388;-64
2023/01/24 02:43:10;;;;;;;8.70;4.32;;;4.10;85.20;;;;;;5025964;28;20156;-65
2023/01/24 02:45:35;;;;;;;9.20;4.13;;;4.10;85.50;;;;;;5021463;28;20029;-64
2023/01/24 02:48:01;;;;;;;10.45;4.50;;;4.20;85.40;;;;;;5030686;28;20026;-64
2023/01/24 02:53:28;;;;;;;11.55;4.60;;;4.00;85.40;;;;;;5028847;28;20104;-63
2023/01/24 02:53:31;;;;;;;9.75;4.53;;;3.90;85.50;;;;;;5011678;28;20049;-63
2023/01/24 02:58:47;;;;;;;7.15;4.05;;;3.80;85.90;;;;;;5015424;28;20099;-66
2023/01/24 03:01:14;;;;;;;11.80;4.60;;;3.80;85.90;;;;;;5030248;28;20033;-66
2023/01/24 03:03:41;;;;;;;8.85;4.38;;;3.80;86.00;;;;;;5017829;28;20611;-65
2023/01/24 03:06:07;;;;;;;6.38;2.92;;;3.90;86.20;;;;;;5029246;28;20079;-66
2023/01/24 03:08:34;;;;;;;8.93;4.20;;;4.00;86.20;;;;;;5023432;28;20021;-65
2023/01/24 03:11:01;;;;;;;8.23;4.20;;;3.90;85.90;;;;;;5012598;28;20488;-64
2023/01/24 03:35:22;;;;;;;4.68;3.22;;;3.90;86.40;;;;;;5023148;28;20070;-66
2023/01/24 03:40:32;;;;;;;7.40;3.90;;;4.00;86.50;;;;;;5015182;28;20164;-65
2023/01/24 03:42:59;;;;;;;10.40;4.68;;;4.00;86.40;;;;;;5025778;28;20025;-64
2023/01/24 03:45:27;;;;;;;8.70;3.53;;;3.90;86.40;;;;;;5012648;28;20061;-65
2023/01/24 03:47:56;;;;;;;8.73;3.90;;;3.90;86.50;;;;;;5028821;28;20024;-67
2023/01/24 03:53:12;;;;;;;11.20;5.40;;;3.80;86.50;;;;;;5014925;28;20068;-67
2023/01/24 03:55:38;;;;;;;12.88;4.97;;;3.70;86.50;;;;;;5027823;28;20026;-67
2023/01/24 03:58:04;;;;;;;10.13;4.18;;;3.70;86.80;;;;;;5011752;28;20088;-66
2023/01/24 04:00:31;;;;;;;10.07;4.60;;;3.70;86.90;;;;;;5021061;28;20036;-65
2023/01/24 04:02:56;;;;;;;11.88;5.25;;;3.70;87.00;;;;;;5016936;28;20029;-66
2023/01/24 04:05:22;;;;;;;10.10;4.80;;;3.60;87.00;;;;;;5028292;28;20025;-66
2023/01/24 04:07:48;;;;;;;14.35;5.53;;;3.60;87.10;;;;;;5029634;28;20473;-66
2023/01/24 04:10:14;;;;;;;8.52;4.18;;;3.60;87.20;;;;;;5029997;28;20026;-66
2023/01/24 04:12:41;;;;;;;11.13;4.80;;;3.60;87.30;;;;;;5025334;28;20507;-66
2023/01/24 04:15:07;;;;;;;8.38;4.18;;;3.60;87.30;;;;;;5020275;28;20037;-66
2023/01/24 04:17:33;;;;;;;7.68;3.35;;;3.60;87.40;;;;;;5027043;28;20112;-66
2023/01/24 04:19:58;;;;;;;12.85;5.20;;;3.70;87.40;;;;;;5028750;28;20514;-66
2023/01/24 04:22:24;;;;;;;11.75;5.97;;;3.60;87.20;;;;;;5026248;28;20030;-67
2023/01/24 04:24:50;;;;;;;12.55;5.03;;;3.70;87.20;;;;;;5019512;28;20407;-66
2023/01/24 04:27:15;;;;;;;8.90;4.25;;;3.70;87.50;;;;;;5024315;28;20028;-66
2023/01/24 04:29:41;;;;;;;9.38;4.53;;;3.70;87.20;;;;;;5011417;28;20105;-65
2023/01/24 04:32:07;;;;;;;8.27;3.67;;;3.60;87.20;;;;;;5011385;28;20036;-66
2023/01/24 04:34:33;;;;;;;11.70;4.97;;;3.70;87.40;;;;;;5011042;28;20038;-67
2023/01/24 04:36:58;;;;;;;6.57;3.17;;;3.70;87.30;;;;;;5017113;28;20056;-66
2023/01/24 04:39:24;;;;;;;9.07;4.30;;;3.70;87.40;;;;;;5029528;28;20391;-67
2023/01/24 04:41:50;;;;;;;9.70;4.97;;;3.70;87.10;;;;;;5023858;28;20037;-65
2023/01/24 04:44:15;;;;;;;11.20;5.00;;;3.60;86.90;;;;;;5012057;28;20077;-68
2023/01/24 04:46:41;;;;;;;11.55;4.00;;;3.60;87.50;;;;;;5011797;28;20105;-66
2023/01/24 04:49:06;;;;;;;10.52;3.90;;;3.60;87.60;;;;;;5011085;28;20399;-65
2023/01/24 04:51:32;;;;;;;8.23;3.58;;;3.60;87.70;;;;;;5013778;28;20758;-66
2023/01/24 04:53:57;;;;;;;6.47;2.88;;;3.70;87.70;;;;;;5018589;28;20037;-67
2023/01/24 04:56:23;;;;;;;6.80;3.00;;;3.70;87.60;;;;;;5014213;28;20506;-65
2023/01/24 04:58:48;;;;;;;10.05;4.50;;;3.70;87.70;;;;;;5028787;28;20028;-65
2023/01/24 05:01:14;;;;;;;10.32;4.05;;;3.70;87.40;;;;;;5011104;28;20030;-67
2023/01/24 05:03:39;;;;;;;10.35;4.22;;;3.60;87.30;;;;;;5025936;28;20022;-65
2023/01/24 05:06:05;;;;;;;10.38;4.85;;;3.70;87.60;;;;;;5032605;28;20025;-65
2023/01/24 05:08:30;;;;;;;8.73;3.63;;;3.60;87.50;;;;;;5032634;28;20017;-65
2023/01/24 05:11:01;;;;;;;7.88;3.65;;;3.70;87.70;;;;;;5033129;28;20594;-68
2023/01/24 05:13:26;;;;;;;12.90;4.53;;;3.70;87.70;;;;;;5032467;28;20032;-66
2023/01/24 05:15:52;;;;;;;11.88;5.35;;;3.60;87.60;;;;;;5031674;28;20030;-67
2023/01/24 05:18:18;;;;;;;8.35;4.30;;;3.60;87.70;;;;;;5032378;28;20610;-65
2023/01/24 05:20:44;;;;;;;13.43;5.88;;;3.60;88.00;;;;;;5032549;28;20467;-66
2023/01/24 05:23:10;;;;;;;11.88;5.38;;;3.60;87.70;;;;;;5030478;28;20037;-66
2023/01/24 05:25:35;;;;;;;11.27;4.97;;;3.50;87.70;;;;;;5031639;28;20022;-67
2023/01/24 05:28:01;;;;;;;11.43;4.78;;;3.40;87.60;;;;;;5031805;28;20021;-68
2023/01/24 05:30:26;;;;;;;12.90;5.68;;;3.40;87.80;;;;;;5031725;28;20021;-66
2023/01/24 05:32:56;;;;;;;11.63;4.35;;;3.30;87.80;;;;;;5031816;28;20025;-66
2023/01/24 05:35:21;;;;;;;10.60;3.92;;;3.30;88.00;;;;;;5032247;28;20033;-67
2023/01/24 05:37:47;;;;;;;9.70;4.63;;;3.40;88.30;;;;;;5031937;28;20028;-67
2023/01/24 05:40:13;;;;;;;8.73;4.18;;;3.50;88.10;;;;;;5032173;28;20041;-66
2023/01/24 05:42:41;;;;;;;6.78;3.70;;;3.50;88.00;;;;;;5030959;28;20487;-66
2023/01/24 05:45:07;;;;;;;7.65;3.00;;;3.60;88.00;;;;;;5031358;28;20025;-67
2023/01/24 05:47:32;;;;;;;9.32;3.83;;;3.70;87.90;;;;;;5031055;28;20024;-67
2023/01/24 05:49:58;;;;;;;10.15;4.70;;;3.70;87.70;;;;;;5031476;28;20029;-66
2023/01/24 05:52:23;;;;;;;8.52;3.95;;;3.60;87.60;;;;;;5032491;28;20057;-69
2023/01/24 05:54:49;;;;;;;7.07;3.88;;;3.60;87.80;;;;;;5031187;28;20029;-66
2023/01/24 05:57:17;;;;;;;7.32;3.53;;;3.60;87.70;;;;;;5031952;28;20025;-66
2023/01/24 05:59:43;;;;;;;6.45;2.75;;;3.70;87.90;;;;;;5032216;28;20041;-68
2023/01/24 06:02:08;;;;;;;8.05;3.95;;;3.70;87.80;;;;;;5030241;28;20159;-66
2023/01/24 06:04:34;;;;;;;9.45;4.22;;;3.80;87.60;;;;;;5031680;28;20028;-66
2023/01/24 06:07:00;;;;;;;14.13;5.78;;;3.70;87.50;;;;;;5031764;28;20029;-68
2023/01/24 06:09:25;;;;;;;12.40;5.20;;;3.70;87.20;;;;;;5031902;28;20028;-66
2023/01/24 06:11:51;;;;;;;12.02;5.13;;;3.50;87.20;;;;;;5031305;28;20662;-66
2023/01/24 06:14:16;;;;;;;10.93;5.47;;;3.40;87.50;;;;;;5031669;28;20052;-66
2023/01/24 06:16:44;;;;;;;14.48;6.03;;;3.50;88.00;;;;;;5031564;28;20072;-66
2023/01/24 06:19:13;;;;;;;9.65;4.97;;;3.50;87.90;;;;;;5029888;28;20542;-66
2023/01/24 06:22:08;;;;;;;7.43;3.55;;;3.40;87.70;;;;;;5030994;28;20036;-65
2023/01/24 06:24:34;;;;;;;10.52;3.95;;;3.40;87.90;;;;;;5030888;28;20112;-66
2023/01/24 06:26:59;;;;;;;13.90;5.72;;;3.40;87.90;;;;;;5029708;28;20520;-66
2023/01/24 06:29:25;;;;;;;15.05;6.32;;;3.40;87.70;;;;;;5030878;28;20045;-66
2023/01/24 06:32:05;;;;;;;10.70;4.97;;;3.30;88.00;;;;;;5035991;28;20136;-66
2023/01/24 06:34:56;;;;;;;9.05;4.10;;;3.30;88.20;;;;;;5032037;28;20057;-66
2023/01/24 06:37:34;;;;;;;8.23;4.25;;;3.40;88.40;;;;;;5042208;28;20111;-68
2023/01/24 06:40:00;;;;;;;10.38;4.45;;;3.50;88.30;;;;;;5029344;28;20033;-67
2023/01/24 06:42:26;;;;;;;13.60;5.90;;;3.40;88.20;;;;;;5029719;28;20091;-67
2023/01/24 06:44:51;;;;;;;13.48;5.43;;;3.40;87.90;;;;;;5028844;28;20033;-67
2023/01/24 06:47:17;;;;;;;10.98;5.28;;;3.20;87.80;;;;;;5030642;28;20030;-67
2023/01/24 06:49:43;;;;;;;13.25;6.10;;;3.20;88.20;;;;;;5038781;28;20037;-66
2023/01/24 06:52:09;;;;;;;10.90;5.57;;;3.20;88.30;;;;;;5048649;28;20029;-66
2023/01/24 06:54:35;;;;;;;11.45;5.30;;;3.20;88.30;;;;;;5030970;28;20732;-67
2023/01/24 06:57:02;;;;;;;11.60;5.30;;;3.10;88.40;;;;;;5031920;28;20040;-67
2023/01/24 06:59:27;;;;;;;9.25;4.95;;;3.10;88.50;;;;;;5031655;28;20025;-67
2023/01/24 07:01:53;;;;;;;9.20;4.72;;;3.10;88.70;;;;;;5027338;28;20048;-64
2023/01/24 07:04:19;;;;;;;11.30;5.18;;;3.20;88.80;;;;;;5026512;28;20029;-65
2023/01/24 07:06:44;;;;;;;11.55;5.63;;;3.20;88.70;;;;;;5025200;28;20048;-64
2023/01/24 07:09:10;;;;;;;10.18;4.50;;;3.20;88.70;;;;;;5027770;28;20029;-65
2023/01/24 07:11:36;;;;;;;8.38;3.80;;;3.30;88.80;;;;;;5026941;28;20025;-66
2023/01/24 07:14:02;;;;;;;9.32;4.25;;;3.30;88.60;;;;;;5028612;28;20095;-67
2023/01/24 07:16:28;;;;;;;10.02;3.92;;;3.30;88.50;;;;;;5030230;28;20031;-68
2023/01/24 07:18:54;;;;;;;5.28;3.13;;;3.40;88.70;;;;;;5030760;28;20108;-65
2023/01/24 07:21:20;;;;;;;8.25;3.60;;;3.40;88.50;;;;;;5032805;28;20028;-65
2023/01/24 07:23:48;;;;;;;10.55;4.82;;;3.40;88.60;;;;;;5031356;28;20065;-66
2023/01/24 07:26:14;;;;;;;11.90;6.05;;;3.40;88.20;;;;;;5029329;28;20036;-66
2023/01/24 07:28:40;;;;;;;10.75;4.80;;;3.40;88.20;;;;;;5031619;28;20052;-65
2023/01/24 07:31:06;;;;;;;11.02;4.55;;;3.30;88.40;;;;;;5031925;28;20078;-66
2023/01/24 07:33:33;;;;;;;8.43;4.13;;;3.30;88.50;;;;;;5029276;28;20029;-66
2023/01/24 07:35:58;;;;;;;13.15;5.45;;;3.30;88.70;;;;;;5029320;28;20033;-66
2023/01/24 07:38:24;;;;;;;12.38;5.82;;;3.30;88.50;;;;;;5029184;28;20037;-66
2023/01/24 07:40:50;;;;;;;11.60;5.32;;;3.30;88.60;;;;;;5029569;28;20443;-66
2023/01/24 07:43:15;;;;;;;11.80;5.03;;;3.20;88.70;;;;;;5030047;28;20045;-67
2023/01/24 07:45:45;;;;;;;11.77;5.70;;;3.30;88.90;;;;;;5027856;28;20053;-67
2023/01/24 07:48:11;;;;;;;15.73;5.80;;;3.20;88.80;;;;;;5029591;28;20028;-67
2023/01/24 07:50:36;;;;;;;10.45;5.68;;;3.20;88.80;;;;;;5029741;28;20021;-66
2023/01/24 07:53:02;;;;;;;14.13;5.30;;;3.30;88.90;;;;;;5031090;28;20040;-66
2023/01/24 07:55:28;;;;;;;9.40;4.78;;;3.30;89.50;;;;;;5031066;28;20483;-67
2023/01/24 07:58:02;;;;;;;11.52;4.60;;;3.30;89.00;;;;;;5030679;28;20070;-66
2023/01/24 08:00:28;;;;;;;7.20;3.35;;;3.40;89.00;;;;;;5029748;28;20025;-67
2023/01/24 08:02:54;;;;;;;5.53;2.90;;;3.50;88.70;;;;;;5028465;28;20083;-66
2023/01/24 08:05:19;;;;;;;10.43;4.65;;;3.50;88.50;;;;;;5042792;28;20009;-67
2023/01/24 08:07:45;;;;;;;6.47;3.40;;;3.50;88.30;;;;;;5049580;28;20021;-66
2023/01/24 08:10:10;;;;;;;8.73;4.03;;;3.40;88.40;;;;;;5049787;28;20094;-66
2023/01/24 08:12:36;;;;;;;11.38;4.35;;;3.40;88.60;;;;;;5038720;28;20056;-66
2023/01/24 08:15:02;;;;;;;6.25;3.25;;;3.40;88.60;;;;;;5046606;28;20033;-66
2023/01/24 08:17:28;;;;;;;10.73;4.45;;;3.50;88.80;;;;;;5040910;28;20029;-67
2023/01/24 08:19:53;;;;;;;10.00;4.80;;;3.50;88.70;;;;;;5042174;28;20036;-66
2023/01/24 08:22:19;;;;;;;10.00;4.78;;;3.50;88.50;;;;;;5049566;28;20029;-67
2023/01/24 08:24:44;;;;;;;7.85;3.47;;;3.40;88.50;;;;;;5044281;28;20057;-68
2023/01/24 08:27:10;;;;;;;16.33;6.45;;;3.40;88.70;;;;;;5036181;28;20072;-68
2023/01/24 08:29:36;;;;;;;12.75;5.68;;;3.40;88.60;;;;;;5036075;28;20025;-67
2023/01/24 08:32:01;;;;;;;8.43;3.72;;;3.30;88.70;;;;;;5029499;28;20053;-68
2023/01/24 08:34:27;;;;;;;7.22;3.53;;;3.40;88.90;;;;;;5029019;28;20036;-68
2023/01/24 08:36:52;;;;;;;7.35;3.85;;;3.40;88.90;;;;;;5029605;28;20399;-65
2023/01/24 08:39:18;;;;;;;14.20;5.68;;;3.60;89.00;;;;;;5035152;28;20102;-66
2023/01/24 08:41:45;;;;;;;10.15;4.45;;;3.50;88.30;;;;;;5039389;28;20072;-66
2023/01/24 08:44:12;;;;;;;9.10;4.35;;;3.40;88.30;;;;;;5045992;28;20388;-66
2023/01/24 08:46:37;;;;;;;12.32;5.28;;;3.40;89.10;;;;;;5037659;28;20071;-66
2023/01/24 08:49:03;;;;;;;10.43;4.78;;;3.40;88.50;;;;;;5037186;28;20432;-66
2023/01/24 08:51:29;;;;;;;11.48;4.50;;;3.30;88.10;;;;;;5043236;28;20489;-67
2023/01/24 08:53:54;;;;;;;11.65;4.95;;;3.30;88.20;;;;;;5041851;28;20036;-66
2023/01/24 08:56:20;;;;;;;12.57;5.93;;;3.30;88.40;;;;;;5050579;28;20502;-65
2023/01/24 08:58:46;;;;;;;12.70;6.07;;;3.20;89.00;;;;;;5041793;28;20582;-65
2023/01/24 09:01:11;;;;;;;9.63;4.45;;;3.20;88.60;;;;;;5043007;28;20365;-65
2023/01/24 09:03:37;;;;;;;10.50;4.97;;;3.30;88.70;;;;;;5044750;28;20021;-66
2023/01/24 09:06:04;;;;;;;9.90;4.47;;;3.20;88.60;;;;;;5044105;28;20070;-67
2023/01/24 09:08:29;;;;;;;12.35;5.82;;;3.30;88.50;;;;;;5032946;28;20033;-66
2023/01/24 09:10:58;;;;;;;11.20;4.60;;;3.30;88.40;;;;;;5048865;28;20024;-65
2023/01/24 09:13:24;;;;;;;9.55;4.13;;;3.30;88.60;;;;;;5048679;28;20499;-67
2023/01/24 09:15:50;;;;;;;12.68;5.35;;;3.40;88.60;;;;;;5052634;28;20098;-68
2023/01/24 09:18:16;;;;;;;10.65;5.28;;;3.40;88.10;;;;;;5047280;28;20025;-69
2023/01/24 09:20:42;;;;;;;10.45;4.60;;;3.30;88.20;;;;;;5036192;28;20668;-69
2023/01/24 09:23:09;;;;;;;7.40;3.65;;;3.40;88.50;;;;;;5029139;28;20025;-64
2023/01/24 09:25:34;;;;;;;10.73;5.18;;;3.40;88.30;;;;;;5037381;28;20028;-65
2023/01/24 09:28:00;;;;;;;15.10;5.65;;;3.40;88.10;;;;;;5039245;28;20112;-65
2023/01/24 09:30:26;;;;;;;8.55;4.25;;;3.40;88.10;;;;;;5029429;28;20075;-65
2023/01/24 09:32:51;;;;;;;6.05;3.13;;;3.50;88.40;;;;;;5032284;28;20034;-65
2023/01/24 09:35:17;;;;;;;10.50;5.28;;;3.50;88.20;;;;;;5035587;28;20091;-65
2023/01/24 09:37:44;;;;;;;14.43;5.82;;;3.50;87.40;;;;;;5039763;28;20115;-65
2023/01/24 09:40:34;;;;;;;10.15;4.82;;;3.40;87.90;;;;;;5034550;28;20026;-64
2023/01/24 09:43:13;;;;;;;8.85;4.32;;;3.40;88.10;;;;;;5033226;28;20484;-64
2023/01/24 09:45:55;;;;;;;9.25;4.18;;;3.40;87.90;;;;;;5034417;28;20025;-65
2023/01/24 09:48:22;;;;;;;13.25;5.57;;;3.50;88.00;;;;;;5030478;28;20507;-65
2023/01/24 09:50:52;;;;;;;9.30;4.45;;;3.40;87.60;;;;;;5032325;28;20075;-64
2023/01/24 09:53:25;;;;;;;12.77;5.38;;;3.30;87.40;;;;;;5031124;28;20025;-66
2023/01/24 09:55:52;;;;;;;8.90;3.88;;;3.30;87.80;;;;;;5032378;28;21467;-65
2023/01/24 09:58:18;;;;;;;12.30;5.68;;;3.30;87.80;;;;;;5032813;28;20032;-66
2023/01/24 10:00:44;;;;;;;9.55;4.53;;;3.30;87.70;;;;;;5033832;28;20033;-65
2023/01/24 10:03:20;;;;;;;11.05;5.10;;;3.30;88.00;;;;;;5034379;28;20048;-64
2023/01/24 10:05:52;;;;;;;9.05;4.72;;;3.30;87.70;;;;;;5031388;28;20037;-66
2023/01/24 10:08:30;;;;;;;13.20;5.20;;;3.40;88.00;;;;;;5032128;28;20629;-65
2023/01/24 10:11:26;;;;;;;9.82;4.28;;;3.40;87.50;;;;;;5030345;28;20026;-66
2023/01/24 10:14:18;;;;;;;10.77;4.57;;;3.40;87.60;;;;;;5028800;28;20091;-65
2023/01/24 10:17:10;;;;;;;10.43;4.10;;;3.50;87.60;;;;;;5030143;28;20030;-65
2023/01/24 10:20:05;;;;;;;6.82;3.53;;;3.50;87.30;;;;;;5027346;28;20041;-65
2023/01/24 10:22:57;;;;;;;7.32;3.45;;;3.50;87.50;;;;;;5028586;28;20052;-65
2023/01/24 10:25:27;;;;;;;12.48;5.50;;;3.60;87.40;;;;;;5028074;28;20014;-65
2023/01/24 10:27:57;;;;;;;10.20;4.38;;;3.60;87.20;;;;;;5029403;28;20025;-64
2023/01/24 10:30:43;;;;;;;8.90;3.45;;;3.60;87.30;;;;;;5028636;28;20032;-66
2023/01/24 10:33:18;;;;;;;5.93;2.67;;;3.70;87.40;;;;;;5030479;28;20033;-65
2023/01/24 10:36:01;;;;;;;8.00;3.45;;;3.90;87.40;;;;;;5029171;28;20029;-65
2023/01/24 10:38:27;;;;;;;11.05;4.10;;;3.90;86.80;;;;;;5029765;28;20045;-65
2023/01/24 10:40:56;;;;;;;10.43;4.43;;;3.80;86.50;;;;;;5034568;28;20479;-65
2023/01/24 10:43:24;;;;;;;7.25;3.40;;;3.70;86.90;;;;;;5030479;28;20057;-66
2023/01/24 10:46:15;;;;;;;10.32;4.35;;;3.80;86.70;;;;;;5029294;28;20026;-64
2023/01/24 10:48:44;;;;;;;6.55;2.92;;;3.70;86.60;;;;;;5028152;28;20053;-66
2023/01/24 10:51:28;;;;;;;12.25;5.60;;;3.70;86.90;;;;;;5028076;28;20033;-65
2023/01/24 10:54:01;;;;;;;12.27;4.88;;;3.50;86.80;;;;;;5033279;28;20031;-67
2023/01/24 10:56:27;;;;;;;9.45;4.65;;;3.50;86.80;;;;;;5030744;28;20029;-66
2023/01/24 10:59:11;;;;;;;9.98;4.32;;;3.50;86.80;;;;;;5031240;28;20045;-66
2023/01/24 11:01:48;;;;;;;10.82;5.03;;;3.50;87.20;;;;;;5020718;28;20112;-67
2023/01/24 11:04:14;;;;;;;10.82;3.90;;;3.50;86.90;;;;;;5029532;28;20116;-69
2023/01/24 11:06:39;;;;;;;7.53;3.67;;;3.60;87.30;;;;;;5025870;28;20108;-68
2023/01/24 11:09:20;;;;;;;9.23;4.13;;;3.60;87.00;;;;;;5025065;28;20083;-67
2023/01/24 11:11:56;;;;;;;10.02;4.55;;;3.60;87.40;;;;;;5026147;28;20057;-66
2023/01/24 11:14:25;;;;;;;8.98;3.78;;;3.60;86.80;;;;;;5029068;28;20029;-69
2023/01/24 11:16:53;;;;;;;11.57;5.00;;;3.50;86.60;;;;;;5026868;28;20103;-68
2023/01/24 11:19:38;;;;;;;9.20;4.20;;;3.50;86.80;;;;;;5030052;28;20021;-66
2023/01/24 11:22:21;;;;;;;15.55;4.80;;;3.40;86.10;;;;;;5026897;28;20030;-67
2023/01/24 11:24:47;;;;;;;11.18;5.38;;;3.40;86.40;;;;;;5027261;28;20388;-68
2023/01/24 11:27:17;;;;;;;7.80;3.95;;;3.30;86.40;;;;;;5030892;28;20017;-68
2023/01/24 11:29:43;;;;;;;8.00;3.80;;;3.30;86.90;;;;;;5029199;28;20116;-68
2023/01/24 11:32:20;;;;;;;6.85;3.60;;;3.50;87.20;;;;;;5028416;28;20455;-68
2023/01/24 11:35:13;;;;;;;6.35;2.60;;;3.60;86.90;;;;;;5035701;28;20033;-65
2023/01/24 11:38:03;;;;;;;6.97;3.53;;;3.70;86.50;;;;;;5035729;28;20173;-67
2023/01/24 11:40:42;;;;;;;7.80;3.70;;;3.70;86.40;;;;;;5031907;28;20029;-68
2023/01/24 11:43:23;;;;;;;7.60;3.40;;;3.70;85.90;;;;;;5028339;28;20303;-66
2023/01/24 11:46:06;;;;;;;16.25;4.75;;;3.80;86.20;;;;;;5027458;28;20021;-64
2023/01/24 11:48:52;;;;;;;9.23;4.45;;;3.80;86.00;;;;;;5033137;28;20442;-69
2023/01/24 11:51:41;;;;;;;8.13;3.97;;;3.70;85.40;;;;;;5038533;28;20045;-69
2023/01/24 11:54:24;;;;;;;8.52;4.13;;;3.70;86.20;;;;;;5030844;28;20029;-67
2023/01/24 11:56:49;;;;;;;7.82;3.65;;;3.70;86.00;;;;;;5026982;28;20029;-69
2023/01/24 11:59:33;;;;;;;7.45;3.25;;;3.70;86.20;;;;;;5031854;28;20024;-67
2023/01/24 12:02:36;;;;;;;3.45;2.17;;;3.80;86.40;;;;;;5034470;28;20071;-66
2023/01/24 12:05:20;;;;;;;5.22;2.13;;;4.00;86.20;;;;;;5047107;28;20030;-68
2023/01/24 12:08:06;;;;;;;5.95;2.90;;;4.10;85.80;;;;;;5030167;28;20469;-68
2023/01/24 12:11:04;;;;;;;8.32;4.05;;;4.00;85.50;;;;;;5034561;28;20029;-68
2023/01/24 12:14:00;;;;;;;9.20;4.53;;;3.90;85.70;;;;;;5031472;28;20120;-68
2023/01/24 12:16:43;;;;;;;9.30;3.95;;;3.80;85.20;;;;;;5029266;28;20034;-67
2023/01/24 12:19:32;;;;;;;5.57;3.03;;;3.80;85.90;;;;;;5035427;28;20026;-68
2023/01/24 12:21:58;;;;;;;7.35;3.75;;;3.80;85.80;;;;;;5034058;28;20025;-65
2023/01/24 12:24:30;;;;;;;6.05;2.97;;;3.90;86.00;;;;;;5031182;28;20097;-67
2023/01/24 12:27:00;;;;;;;5.23;2.47;;;3.90;85.90;;;;;;5033506;28;20037;-68
2023/01/24 12:29:41;;;;;;;5.63;3.00;;;4.00;85.70;;;;;;5028099;28;20539;-68
2023/01/24 12:32:36;;;;;;;5.53;2.75;;;4.00;85.80;;;;;;5033115;28;20030;-69
2023/01/24 12:35:13;;;;;;;5.13;2.47;;;4.00;85.70;;;;;;5026595;28;20503;-67
2023/01/24 12:37:51;;;;;;;6.22;2.60;;;4.10;85.60;;;;;;5029326;28;20476;-68
2023/01/24 12:40:25;;;;;;;5.47;2.40;;;4.00;85.50;;;;;;5029406;28;20040;-67
2023/01/24 12:43:25;;;;;;;6.70;3.08;;;4.10;85.80;;;;;;5029804;28;20064;-69
2023/01/24 12:46:16;;;;;;;4.63;2.53;;;4.00;85.00;;;;;;5019256;28;20042;-68
2023/01/24 12:48:47;;;;;;;4.40;2.50;;;4.00;85.60;;;;;;5038900;28;20091;-68
2023/01/24 12:51:31;;;;;;;6.57;2.70;;;4.10;85.80;;;;;;5026769;28;20048;-67
2023/01/24 12:54:04;;;;;;;7.63;3.80;;;4.00;85.40;;;;;;5036881;28;20113;-66
2023/01/24 12:56:40;;;;;;;5.18;3.05;;;4.00;85.30;;;;;;5033718;28;20017;-67
2023/01/24 12:59:08;;;;;;;7.22;3.10;;;3.90;85.50;;;;;;5022113;28;20029;-68
2023/01/24 13:01:55;;;;;;;8.82;3.75;;;4.00;85.70;;;;;;5026715;28;20037;-67
2023/01/24 13:05:00;;;;;;;5.45;3.03;;;3.90;85.60;;;;;;5024170;28;20104;-66
2023/01/24 13:07:33;;;;;;;5.03;2.60;;;3.90;85.60;;;;;;5028373;28;20025;-68
2023/01/24 13:10:24;;;;;;;5.65;2.75;;;4.00;85.60;;;;;;5025873;28;20026;-67
2023/01/24 13:12:51;;;;;;;6.72;3.65;;;3.90;85.50;;;;;;5025741;28;20033;-68
2023/01/24 13:15:37;;;;;;;5.65;2.97;;;4.00;85.80;;;;;;5025012;28;20029;-67
2023/01/24 13:18:23;;;;;;;4.97;2.53;;;4.00;85.60;;;;;;5025640;28;20052;-66
2023/01/24 13:21:10;;;;;;;4.20;2.20;;;4.10;85.70;;;;;;5022291;28;20488;-66
2023/01/24 13:24:00;;;;;;;2.63;1.90;;;4.20;85.60;;;;;;5022235;28;20033;-69
2023/01/24 13:26:29;;;;;;;5.32;2.65;;;4.30;85.40;;;;;;5028484;28;20021;-68
2023/01/24 13:29:16;;;;;;;4.93;2.17;;;4.20;84.60;;;;;;5032460;28;20112;-69
2023/01/24 13:32:14;;;;;;;8.77;3.80;;;4.10;84.90;;;;;;5031249;28;20037;-66
2023/01/24 13:34:58;;;;;;;7.18;3.30;;;4.00;84.80;;;;;;5033938;28;20025;-66
2023/01/24 13:37:32;;;;;;;9.30;4.53;;;3.90;84.90;;;;;;5034001;28;20495;-68
2023/01/24 13:40:20;;;;;;;7.88;3.30;;;3.80;85.40;;;;;;5020209;28;20040;-67
2023/01/24 13:42:46;;;;;;;5.88;3.20;;;3.80;85.20;;;;;;5028779;28;20076;-69
2023/01/24 13:45:25;;;;;;;5.07;3.03;;;3.80;85.80;;;;;;5028734;28;20109;-68
2023/01/24 13:47:59;;;;;;;4.95;2.90;;;3.80;85.30;;;;;;5029156;28;20030;-68